createdAt,value
2018-08-23T00:00:47.172Z,100117.36
2018-08-23T00:03:21.174Z,100113.88
2018-08-23T00:05:53.168Z,100115.91
2018-08-23T00:08:23.127Z,100105.91
2018-08-23T00:10:52.612Z,100102.29
2018-08-23T00:13:21.985Z,100098.09
2018-08-23T00:15:51.262Z,100104.05
2018-08-23T00:18:20.019Z,100110.19
2018-08-23T00:20:48.662Z,100102.77
2018-08-23T00:23:17.548Z,100095.66
2018-08-23T00:25:46.556Z,100099.28
2018-08-23T00:28:15.355Z,100100.42
2018-08-23T00:30:46.242Z,100110.03
2018-08-23T00:33:15.570Z,100111.92
2018-08-23T00:35:44.505Z,100109.05
2018-08-23T00:38:13.179Z,100108.08
2018-08-23T00:40:44.256Z,100107.05
2018-08-23T00:43:14.955Z,100101.09
2018-08-23T00:45:44.247Z,100099.16
2018-08-23T00:48:13.173Z,100097.95
2018-08-23T00:50:54.437Z,100092.66
2018-08-23T00:53:23.606Z,100093.14
2018-08-23T00:56:26.733Z,100094.81
2018-08-23T00:59:02.826Z,100090.56
2018-08-23T01:01:32.600Z,100091.05
2018-08-23T01:04:01.404Z,100091.89
2018-08-23T01:06:43.146Z,100086.23
2018-08-23T01:09:13.074Z,100083.09
2018-08-23T01:11:41.878Z,100084.06
2018-08-23T01:14:10.629Z,100080.93
2018-08-23T01:16:39.355Z,100086.36
2018-08-23T01:19:13.403Z,100085.39
2018-08-23T01:21:59.706Z,100080.22
2018-08-23T01:24:30.920Z,100080.78
2018-08-23T01:26:59.687Z,100084.14
2018-08-23T01:29:30.156Z,100078.09
2018-08-23T01:32:07.499Z,100068.80
2018-08-23T01:34:36.539Z,100073.27
2018-08-23T01:37:06.051Z,100071.59
2018-08-23T01:39:35.302Z,100068.09
2018-08-23T01:42:04.314Z,100064.96
2018-08-23T01:44:37.178Z,100064.47
2018-08-23T01:47:05.837Z,100056.16
2018-08-23T01:49:35.481Z,100052.19
2018-08-23T01:52:04.275Z,100049.53
2018-08-23T01:54:33.020Z,100050.37
2018-08-23T01:57:01.857Z,100045.69
2018-08-23T01:59:30.621Z,100046.17
2018-08-23T02:02:00.025Z,100037.38
2018-08-23T02:04:29.073Z,100039.68
2018-08-23T02:06:57.872Z,100039.84
2018-08-23T02:09:27.147Z,100043.47
2018-08-23T02:11:55.825Z,100044.98
2018-08-23T02:14:25.431Z,100042.69
2018-08-23T02:16:54.236Z,100049.53
2018-08-23T02:19:23.362Z,100045.55
2018-08-23T02:21:52.243Z,100045.69
2018-08-23T02:24:25.286Z,100049.05
2018-08-23T02:26:53.963Z,100056.03
2018-08-23T02:29:33.806Z,100054.89
2018-08-23T02:32:02.694Z,100051.56
2018-08-23T02:34:35.907Z,100046.09
2018-08-23T02:37:04.798Z,100051.89
2018-08-23T02:39:33.704Z,100057.55
2018-08-23T02:42:02.451Z,100065.85
2018-08-23T02:44:31.135Z,100077.66
2018-08-23T02:47:02.064Z,100076.33
2018-08-23T02:49:31.301Z,100075.00
2018-08-23T02:52:00.232Z,100074.03
2018-08-23T02:54:29.034Z,100063.06
2018-08-23T02:56:59.059Z,100056.44
2018-08-23T02:59:28.387Z,100046.94
2018-08-23T03:01:57.210Z,100042.82
2018-08-23T03:04:28.090Z,100048.13
2018-08-23T03:07:01.954Z,100056.44
2018-08-23T03:09:45.693Z,100056.92
2018-08-23T03:12:19.302Z,100061.73
2018-08-23T03:14:48.438Z,100055.11
2018-08-23T03:17:20.652Z,100044.85
2018-08-23T03:19:59.123Z,100037.25
2018-08-23T03:22:28.444Z,100047.16
2018-08-23T03:24:58.752Z,100055.95
2018-08-23T03:27:27.878Z,100053.65
2018-08-23T03:29:56.978Z,100058.11
2018-08-23T03:32:26.157Z,100065.94
2018-08-23T03:34:55.031Z,100065.23
2018-08-23T03:37:23.981Z,100072.22
2018-08-23T03:39:52.738Z,100071.02
2018-08-23T03:42:21.363Z,100068.99
2018-08-23T03:44:52.731Z,100066.42
2018-08-23T03:47:21.568Z,100060.63
2018-08-23T03:49:50.680Z,100061.47
2018-08-23T03:52:27.615Z,100062.28
2018-08-23T03:55:02.452Z,100056.17
2018-08-23T03:57:36.470Z,100047.37
2018-08-23T04:00:05.361Z,100049.86
2018-08-23T04:02:34.237Z,100063.96
2018-08-23T04:05:09.636Z,100069.00
2018-08-23T04:07:39.719Z,100068.78
2018-08-23T04:10:08.935Z,100064.80
2018-08-23T04:12:40.733Z,100065.23
2018-08-23T04:15:26.217Z,100067.53
2018-08-23T04:17:54.846Z,100064.88
2018-08-23T04:20:23.894Z,100073.67
2018-08-23T04:22:52.996Z,100064.88
2018-08-23T04:25:21.840Z,100061.73
2018-08-23T04:27:50.565Z,100065.37
2018-08-23T04:30:19.386Z,100053.70
2018-08-23T04:32:49.128Z,100055.59
2018-08-23T04:35:23.352Z,100060.41
2018-08-23T04:37:52.579Z,100062.01
2018-08-23T04:40:21.183Z,100066.34
2018-08-23T04:42:50.112Z,100078.58
2018-08-23T04:45:24.642Z,100087.86
2018-08-23T04:47:58.624Z,100098.19
2018-08-23T04:50:27.726Z,100102.00
2018-08-23T04:52:56.502Z,100099.92
2018-08-23T04:55:25.852Z,100109.08
2018-08-23T04:57:54.940Z,100104.80
2018-08-23T05:00:23.798Z,100114.44
2018-08-23T05:02:52.560Z,100124.69
2018-08-23T05:05:21.489Z,100117.70
2018-08-23T05:07:50.327Z,100127.64
2018-08-23T05:10:19.188Z,100131.88
2018-08-23T05:12:47.980Z,100134.31
2018-08-23T05:15:17.138Z,100126.80
2018-08-23T05:17:46.240Z,100121.20
2018-08-23T05:20:14.955Z,100123.52
2018-08-23T05:22:51.818Z,100111.14
2018-08-23T05:25:22.577Z,100122.41
2018-08-23T05:28:05.392Z,100100.78
2018-08-23T05:30:34.371Z,100091.98
2018-08-23T05:33:22.689Z,100098.40
2018-08-23T05:35:51.389Z,100083.22
2018-08-23T05:38:20.635Z,100083.34
2018-08-23T05:41:00.330Z,100091.71
2018-08-23T05:43:28.945Z,100097.77
2018-08-23T05:45:57.874Z,100098.77
2018-08-23T05:48:32.770Z,100097.21
2018-08-23T05:51:10.696Z,100099.91
2018-08-23T05:53:42.752Z,100099.05
2018-08-23T05:56:11.724Z,100097.54
2018-08-23T05:58:40.576Z,100096.06
2018-08-23T06:01:09.303Z,100091.37
2018-08-23T06:03:38.791Z,100088.66
2018-08-23T06:06:07.854Z,100099.91
2018-08-23T06:08:36.790Z,100105.52
2018-08-23T06:11:09.532Z,100096.42
2018-08-23T06:13:38.755Z,100103.05
2018-08-23T06:16:07.682Z,100091.67
2018-08-23T06:18:36.551Z,100094.53
2018-08-23T06:21:05.262Z,100094.87
2018-08-23T06:23:59.092Z,100096.21
2018-08-23T06:26:50.444Z,100092.03
2018-08-23T06:29:26.251Z,100098.61
2018-08-23T06:32:10.370Z,100100.88
2018-08-23T06:34:45.833Z,100103.85
2018-08-23T06:37:15.182Z,100110.22
2018-08-23T06:39:44.373Z,100109.19
2018-08-23T06:42:13.070Z,100112.92
2018-08-23T06:44:47.174Z,100119.67
2018-08-23T06:47:18.843Z,100122.11
2018-08-23T06:49:48.899Z,100122.14
2018-08-23T06:52:27.965Z,100120.46
2018-08-23T06:54:57.001Z,100122.88
2018-08-23T06:57:25.969Z,100127.38
2018-08-23T06:59:54.872Z,100127.44
2018-08-23T07:02:23.686Z,100126.66
2018-08-23T07:04:52.442Z,100130.14
2018-08-23T07:07:21.060Z,100129.42
2018-08-23T07:09:49.890Z,100131.19
2018-08-23T07:12:18.577Z,100121.83
2018-08-23T07:14:48.598Z,100121.16
2018-08-23T07:17:22.718Z,100136.80
2018-08-23T07:19:52.050Z,100135.10
2018-08-23T07:22:27.163Z,100137.06
2018-08-23T07:24:57.655Z,100136.68
2018-08-23T07:27:26.638Z,100135.55
2018-08-23T07:29:56.985Z,100136.45
2018-08-23T07:32:29.341Z,100139.85
2018-08-23T07:35:04.173Z,100143.42
2018-08-23T07:37:35.203Z,100149.41
2018-08-23T07:40:14.190Z,100149.80
2018-08-23T07:42:44.167Z,100148.50
2018-08-23T07:45:13.207Z,100167.72
2018-08-23T07:47:43.387Z,100159.66
2018-08-23T07:50:12.099Z,100173.02
2018-08-23T07:52:43.188Z,100171.77
2018-08-23T07:55:12.035Z,100171.60
2018-08-23T07:57:41.649Z,100174.66
2018-08-23T08:00:28.869Z,100169.89
2018-08-23T08:02:57.720Z,100170.28
2018-08-23T08:05:31.119Z,100171.54
2018-08-23T08:07:59.998Z,100176.09
2018-08-23T08:10:32.852Z,100184.33
2018-08-23T08:13:01.771Z,100184.85
2018-08-23T08:15:30.423Z,100190.34
2018-08-23T08:18:19.356Z,100193.21
2018-08-23T08:20:54.543Z,100195.98
2018-08-23T08:23:23.525Z,100211.47
2018-08-23T08:25:52.414Z,100214.19
2018-08-23T08:28:21.394Z,100215.39
2018-08-23T08:30:56.402Z,100223.31
2018-08-23T08:33:25.537Z,100216.33
2018-08-23T08:36:01.136Z,100225.61
2018-08-23T08:38:30.593Z,100220.94
2018-08-23T08:41:02.101Z,100229.30
2018-08-23T08:43:31.066Z,100232.59
2018-08-23T08:46:00.458Z,100237.12
2018-08-23T08:48:31.496Z,100240.59
2018-08-23T08:51:16.722Z,100228.42
2018-08-23T08:53:46.191Z,100250.13
2018-08-23T08:56:15.216Z,100247.48
2018-08-23T08:58:44.568Z,100250.30
2018-08-23T09:01:13.332Z,100253.75
2018-08-23T09:03:42.498Z,100258.00
2018-08-23T09:06:12.873Z,100258.73
2018-08-23T09:08:41.796Z,100255.95
2018-08-23T09:11:10.871Z,100255.42
2018-08-23T09:13:45.055Z,100257.65
2018-08-23T09:16:13.680Z,100259.36
2018-08-23T09:18:44.094Z,100258.22
2018-08-23T09:21:13.010Z,100263.73
2018-08-23T09:23:41.985Z,100263.50
2018-08-23T09:26:10.773Z,100268.11
2018-08-23T09:28:39.507Z,100275.84
2018-08-23T09:31:08.421Z,100275.88
2018-08-23T09:33:37.237Z,100275.64
2018-08-23T09:36:05.930Z,100272.23
2018-08-23T09:38:34.919Z,100283.18
2018-08-23T09:41:03.781Z,100276.95
2018-08-23T09:43:33.741Z,100283.42
2018-08-23T09:46:02.553Z,100280.98
2018-08-23T09:48:31.313Z,100281.73
2018-08-23T09:51:00.318Z,100267.61
2018-08-23T09:53:29.339Z,100274.77
2018-08-23T09:55:58.101Z,100280.87
2018-08-23T09:58:32.314Z,100279.93
2018-08-23T10:01:06.373Z,100285.41
2018-08-23T10:03:40.295Z,100296.30
2018-08-23T10:06:14.241Z,100294.59
2018-08-23T10:08:48.280Z,100291.25
2018-08-23T10:11:22.204Z,100295.66
2018-08-23T10:13:56.076Z,100303.59
2018-08-23T10:16:30.098Z,100297.46
2018-08-23T10:19:01.298Z,100304.02
2018-08-23T10:21:35.504Z,100311.80
2018-08-23T10:24:15.538Z,100309.62
2018-08-23T10:26:45.193Z,100317.81
2018-08-23T10:29:14.516Z,100324.70
2018-08-23T10:31:43.226Z,100322.89
2018-08-23T10:34:11.938Z,100328.81
2018-08-23T10:36:41.176Z,100330.09
2018-08-23T10:39:12.700Z,100334.30
2018-08-23T10:41:42.241Z,100335.50
2018-08-23T10:44:11.076Z,100330.30
2018-08-23T10:46:45.187Z,100336.05
2018-08-23T10:49:13.952Z,100339.52
2018-08-23T10:51:42.957Z,100345.23
2018-08-23T10:54:11.765Z,100344.55
2018-08-23T10:56:40.445Z,100335.91
2018-08-23T10:59:09.570Z,100343.36
2018-08-23T11:01:38.402Z,100337.23
2018-08-23T11:04:09.160Z,100347.32
2018-08-23T11:06:42.239Z,100342.41
2018-08-23T11:09:16.075Z,100349.37
2018-08-23T11:11:46.044Z,100352.14
2018-08-23T11:14:19.944Z,100353.86
2018-08-23T11:16:53.948Z,100361.45
2018-08-23T11:19:29.094Z,100363.56
2018-08-23T11:21:58.049Z,100367.92
2018-08-23T11:24:27.088Z,100369.55
2018-08-23T11:26:55.818Z,100365.31
2018-08-23T11:29:24.633Z,100371.53
2018-08-23T11:31:53.396Z,100373.72
2018-08-23T11:34:22.103Z,100373.19
2018-08-23T11:36:50.858Z,100373.40
2018-08-23T11:39:19.671Z,100376.42
2018-08-23T11:41:48.463Z,100371.26
2018-08-23T11:44:17.314Z,100378.90
2018-08-23T11:46:46.131Z,100378.32
2018-08-23T11:49:15.012Z,100374.09
2018-08-23T11:51:43.889Z,100382.19
2018-08-23T11:54:12.735Z,100387.47
2018-08-23T11:56:41.509Z,100391.53
2018-08-23T11:59:10.254Z,100390.70
2018-08-23T12:01:38.977Z,100390.19
2018-08-23T12:04:07.926Z,100388.30
2018-08-23T12:06:36.842Z,100393.52
2018-08-23T12:09:07.686Z,100392.19
2018-08-23T12:11:36.540Z,100383.53
2018-08-23T12:14:05.558Z,100383.00
2018-08-23T12:16:34.709Z,100386.58
2018-08-23T12:19:03.564Z,100375.97
2018-08-23T12:21:32.285Z,100387.98
2018-08-23T12:24:00.940Z,100394.62
2018-08-23T12:26:29.687Z,100395.66
2018-08-23T12:29:03.719Z,100398.88
2018-08-23T12:31:32.412Z,100406.63
2018-08-23T12:34:03.913Z,100410.64
2018-08-23T12:36:38.000Z,100406.02
2018-08-23T12:39:14.071Z,100404.48
2018-08-23T12:41:48.446Z,100407.61
2018-08-23T12:44:18.035Z,100410.23
2018-08-23T12:46:46.882Z,100412.03
2018-08-23T12:49:15.992Z,100409.27
2018-08-23T12:51:44.893Z,100411.42
2018-08-23T12:54:13.782Z,100135.66
2018-08-23T12:56:42.567Z,100413.58
2018-08-23T12:59:11.554Z,100417.89
2018-08-23T13:01:40.473Z,100428.60
2018-08-23T13:04:09.231Z,100434.27
2018-08-23T13:06:38.025Z,100435.40
2018-08-23T13:09:07.575Z,100434.11
2018-08-23T13:11:36.494Z,100435.20
2018-08-23T13:14:05.524Z,100433.23
2018-08-23T13:16:34.408Z,100434.50
2018-08-23T13:19:03.429Z,100444.91
2018-08-23T13:21:32.296Z,100454.48
2018-08-23T13:24:01.141Z,100454.09
2018-08-23T13:26:35.022Z,100458.78
2018-08-23T13:29:04.089Z,100455.45
2018-08-23T13:31:32.807Z,100463.58
2018-08-23T13:34:02.076Z,100459.30
2018-08-23T13:36:30.923Z,100465.50
2018-08-23T13:39:00.016Z,100470.28
2018-08-23T13:41:28.747Z,100471.50
2018-08-23T13:43:57.592Z,100469.88
2018-08-23T13:46:26.412Z,100474.72
2018-08-23T13:48:55.121Z,100481.59
2018-08-23T13:51:24.037Z,100476.64
2018-08-23T13:53:52.798Z,100491.16
2018-08-23T13:56:21.559Z,100491.64
2018-08-23T13:58:50.294Z,100488.56
2018-08-23T14:01:19.366Z,100484.09
2018-08-23T14:03:48.243Z,100491.63
2018-08-23T14:06:17.068Z,100493.77
2018-08-23T14:08:45.817Z,100496.08
2018-08-23T14:11:15.267Z,100493.75
2018-08-23T14:13:44.589Z,100502.19
2018-08-23T14:16:13.195Z,100507.13
2018-08-23T14:18:41.930Z,100508.07
2018-08-23T14:21:10.884Z,100516.06
2018-08-23T14:23:39.478Z,100503.56
2018-08-23T14:26:08.510Z,100493.79
2018-08-23T14:28:37.808Z,100495.02
2018-08-23T14:31:06.578Z,100502.27
2018-08-23T14:33:35.285Z,100496.17
2018-08-23T14:36:04.078Z,100501.92
2018-08-23T14:38:33.188Z,100513.28
2018-08-23T14:41:02.103Z,100510.72
2018-08-23T14:43:30.721Z,100506.05
2018-08-23T14:46:04.767Z,100509.81
2018-08-23T14:48:33.690Z,100503.24
2018-08-23T14:51:02.627Z,100498.05
2018-08-23T14:53:32.079Z,100504.39
2018-08-23T14:56:06.253Z,100503.34
2018-08-23T14:58:35.202Z,100504.27
2018-08-23T15:01:04.058Z,100517.36
2018-08-23T15:03:32.993Z,100518.63
2018-08-23T15:06:01.636Z,100510.53
2018-08-23T15:08:30.425Z,100517.86
2018-08-23T15:10:59.458Z,100512.06
2018-08-23T15:13:28.337Z,100515.45
2018-08-23T15:15:57.487Z,100514.20
2018-08-23T15:18:26.717Z,100516.36
2018-08-23T15:20:55.635Z,100532.03
2018-08-23T15:23:24.214Z,100529.50
2018-08-23T15:25:52.877Z,100526.93
2018-08-23T15:28:21.903Z,100527.80
2018-08-23T15:30:50.718Z,100532.49
2018-08-23T15:33:19.314Z,100531.12
2018-08-23T15:35:48.240Z,100527.14
2018-08-23T15:38:23.558Z,100524.80
2018-08-23T15:40:52.398Z,100521.17
2018-08-23T15:43:21.557Z,100528.84
2018-08-23T15:45:50.236Z,100531.34
2018-08-23T15:48:18.948Z,100527.45
2018-08-23T15:50:47.685Z,100524.36
2018-08-23T15:53:16.481Z,100526.16
2018-08-23T15:55:46.587Z,100529.14
2018-08-23T15:58:15.541Z,100532.59
2018-08-23T16:00:44.440Z,100527.52
2018-08-23T16:03:13.230Z,100524.03
2018-08-23T16:05:42.525Z,100530.24
2018-08-23T16:08:11.478Z,100540.03
2018-08-23T16:10:40.865Z,100536.53
2018-08-23T16:13:10.430Z,100537.93
2018-08-23T16:15:40.143Z,100544.83
2018-08-23T16:18:14.013Z,100542.67
2018-08-23T16:20:52.162Z,100538.16
2018-08-23T16:23:22.220Z,100554.41
2018-08-23T16:25:51.496Z,100549.37
2018-08-23T16:28:20.931Z,100552.74
2018-08-23T16:30:50.736Z,100552.75
2018-08-23T16:33:20.446Z,100557.92
2018-08-23T16:35:53.724Z,100556.56
2018-08-23T16:38:23.440Z,100567.97
2018-08-23T16:40:53.008Z,100561.11
2018-08-23T16:43:22.624Z,100558.11
2018-08-23T16:45:51.593Z,100563.14
2018-08-23T16:48:21.685Z,100565.14
2018-08-23T16:50:50.792Z,100572.52
2018-08-23T16:53:19.445Z,100571.17
2018-08-23T16:55:48.200Z,100574.19
2018-08-23T16:58:17.209Z,100578.35
2018-08-23T17:00:45.957Z,100589.58
2018-08-23T17:03:14.728Z,100599.61
2018-08-23T17:05:43.822Z,100592.90
2018-08-23T17:08:12.742Z,100591.05
2018-08-23T17:10:42.255Z,100595.91
2018-08-23T17:13:15.353Z,100600.73
2018-08-23T17:15:49.789Z,100599.59
2018-08-23T17:18:19.580Z,100600.24
2018-08-23T17:20:48.468Z,100595.70
2018-08-23T17:23:17.381Z,100599.53
2018-08-23T17:25:46.535Z,100602.34
2018-08-23T17:28:15.304Z,100603.48
2018-08-23T17:30:44.258Z,100598.61
2018-08-23T17:33:12.982Z,100605.41
2018-08-23T17:35:41.713Z,100607.94
2018-08-23T17:38:10.751Z,100605.22
2018-08-23T17:40:40.621Z,100603.55
2018-08-23T17:43:09.810Z,100605.87
2018-08-23T17:45:39.166Z,100606.81
2018-08-23T17:48:08.313Z,100607.13
2018-08-23T17:50:37.408Z,100604.09
2018-08-23T17:53:07.187Z,100597.16
2018-08-23T17:55:36.417Z,100603.79
2018-08-23T17:58:05.262Z,100609.54
2018-08-23T18:00:34.100Z,100613.48
2018-08-23T18:03:02.981Z,100612.28
2018-08-23T18:05:31.959Z,100602.51
2018-08-23T18:08:00.652Z,100599.08
2018-08-23T18:10:29.560Z,100610.02
2018-08-23T18:12:58.525Z,100620.64
2018-08-23T18:15:32.749Z,100626.59
2018-08-23T18:18:02.245Z,100625.53
2018-08-23T18:20:31.464Z,100630.95
2018-08-23T18:23:00.042Z,100631.16
2018-08-23T18:25:29.530Z,100631.18
2018-08-23T18:27:58.468Z,100631.61
2018-08-23T18:30:27.392Z,100631.16
2018-08-23T18:32:56.133Z,100636.60
2018-08-23T18:35:25.430Z,100635.17
2018-08-23T18:37:54.281Z,100641.13
2018-08-23T18:40:23.269Z,100636.87
2018-08-23T18:42:53.026Z,100634.86
2018-08-23T18:45:21.706Z,100648.38
2018-08-23T18:47:50.396Z,100642.16
2018-08-23T18:50:19.304Z,100646.22
2018-08-23T18:52:48.658Z,100640.77
2018-08-23T18:55:17.542Z,100639.52
2018-08-23T18:57:46.563Z,100638.63
2018-08-23T19:00:15.490Z,100638.47
2018-08-23T19:02:44.447Z,100642.95
2018-08-23T19:05:13.698Z,100646.55
2018-08-23T19:07:43.874Z,100647.95
2018-08-23T19:10:13.943Z,100651.67
2018-08-23T19:12:43.284Z,100651.80
2018-08-23T19:15:12.155Z,100656.48
2018-08-23T19:17:43.193Z,100651.50
2018-08-23T19:20:13.383Z,100649.20
2018-08-23T19:22:42.057Z,100646.87
2018-08-23T19:25:11.617Z,100652.40
2018-08-23T19:27:40.377Z,100651.27
2018-08-23T19:30:09.804Z,100645.72
2018-08-23T19:32:39.066Z,100643.97
2018-08-23T19:35:08.191Z,100641.86
2018-08-23T19:37:36.946Z,100637.28
2018-08-23T19:40:05.937Z,100646.39
2018-08-23T19:42:34.742Z,100652.50
2018-08-23T19:45:03.537Z,100652.98
2018-08-23T19:47:37.489Z,100653.81
2018-08-23T19:50:09.198Z,100658.55
2018-08-23T19:52:38.148Z,100651.52
2018-08-23T19:55:10.557Z,100653.22
2018-08-23T19:57:39.447Z,100651.28
2018-08-23T20:00:09.995Z,100651.68
2018-08-23T20:02:38.980Z,100662.84
2018-08-23T20:05:07.946Z,100667.91
2018-08-23T20:07:36.804Z,100673.70
2018-08-23T20:10:05.515Z,100681.08
2018-08-23T20:12:34.243Z,100669.29
2018-08-23T20:15:02.822Z,100666.11
2018-08-23T20:17:31.695Z,100674.92
2018-08-23T20:20:00.550Z,100667.03
2018-08-23T20:22:29.491Z,100662.33
2018-08-23T20:24:58.351Z,100664.29
2018-08-23T20:27:27.974Z,100665.50
2018-08-23T20:29:56.704Z,100675.66
2018-08-23T20:32:25.638Z,100678.56
2018-08-23T20:34:54.895Z,100677.34
2018-08-23T20:37:23.775Z,100682.41
2018-08-23T20:39:53.076Z,100673.03
2018-08-23T20:42:21.810Z,100682.22
2018-08-23T20:44:50.767Z,100682.47
2018-08-23T20:47:19.492Z,100684.89
2018-08-23T20:49:49.410Z,100689.50
2018-08-23T20:52:18.956Z,100692.16
2018-08-23T20:54:48.815Z,100692.30
2018-08-23T20:57:17.887Z,100696.30
2018-08-23T20:59:47.317Z,100694.47
2018-08-23T21:02:16.383Z,100688.81
2018-08-23T21:04:45.996Z,100684.02
2018-08-23T21:07:15.290Z,100676.29
2018-08-23T21:09:44.690Z,100676.68
2018-08-23T21:12:14.634Z,100675.36
2018-08-23T21:14:43.728Z,100674.49
2018-08-23T21:17:13.406Z,100669.92
2018-08-23T21:19:43.130Z,100678.11
2018-08-23T21:22:12.525Z,100677.05
2018-08-23T21:24:41.328Z,100686.43
2018-08-23T21:27:10.259Z,100685.58
2018-08-23T21:29:39.281Z,100684.37
2018-08-23T21:32:08.008Z,100687.63
2018-08-23T21:34:37.009Z,100689.42
2018-08-23T21:37:06.162Z,100687.95
2018-08-23T21:39:35.001Z,100683.87
2018-08-23T21:42:03.963Z,100688.91
2018-08-23T21:44:32.652Z,100698.91
2018-08-23T21:47:01.344Z,100696.34
2018-08-23T21:49:30.147Z,100701.85
2018-08-23T21:51:59.088Z,100695.00
2018-08-23T21:54:28.011Z,100694.27
2018-08-23T21:56:56.822Z,100693.53
2018-08-23T21:59:25.697Z,100628.23
2018-08-23T22:01:59.941Z,100690.50
2018-08-23T22:04:28.697Z,100687.02
2018-08-23T22:06:57.407Z,100693.62
2018-08-23T22:09:26.354Z,100702.63
2018-08-23T22:11:55.171Z,100707.06
2018-08-23T22:14:23.971Z,100712.94
2018-08-23T22:16:52.698Z,100713.55
2018-08-23T22:19:21.584Z,100711.22
2018-08-23T22:21:50.575Z,100715.17
2018-08-23T22:24:19.329Z,100711.77
2018-08-23T22:26:48.542Z,100705.16
2018-08-23T22:29:17.448Z,100713.92
2018-08-23T22:31:46.894Z,100714.71
2018-08-23T22:34:15.534Z,100715.33
2018-08-23T22:36:44.231Z,100717.83
2018-08-23T22:39:13.121Z,100712.41
2018-08-23T22:41:41.860Z,100709.03
2018-08-23T22:44:11.032Z,100704.56
2018-08-23T22:46:40.137Z,100692.30
2018-08-23T22:49:09.102Z,100684.09
2018-08-23T22:51:37.903Z,100691.53
2018-08-23T22:54:06.849Z,100691.69
2018-08-23T22:56:35.814Z,100692.77
2018-08-23T22:59:04.737Z,100683.14
2018-08-23T23:01:33.428Z,100681.22
2018-08-23T23:04:07.427Z,100684.81
2018-08-23T23:06:36.197Z,100688.54
2018-08-23T23:09:07.487Z,100688.54
2018-08-23T23:11:36.310Z,100688.20
2018-08-23T23:14:06.543Z,100687.94
2018-08-23T23:16:35.211Z,100680.74
2018-08-23T23:19:04.443Z,100680.38
2018-08-23T23:21:33.413Z,100686.34
2018-08-23T23:24:02.751Z,100675.41
2018-08-23T23:26:31.421Z,100666.50
2018-08-23T23:29:00.539Z,100672.02
2018-08-23T23:31:29.223Z,100675.00
2018-08-23T23:33:57.987Z,100668.08
2018-08-23T23:36:26.588Z,100664.48
2018-08-23T23:38:55.305Z,100666.77
2018-08-23T23:41:24.154Z,100659.04
2018-08-23T23:43:53.074Z,100665.17
2018-08-23T23:46:21.702Z,100664.33
2018-08-23T23:48:50.400Z,100658.67
2018-08-23T23:51:19.072Z,100653.26
2018-08-23T23:53:48.084Z,100655.16
2018-08-23T23:56:16.733Z,100655.42
2018-08-23T23:58:45.388Z,100652.04
